sensor_id;sensor_type;location;lat;lon;timestamp;temperature;humidity
69006;SHT31;56061;51.748;19.620;2023-05-16T16:48:47;18.46;58.71
69006;SHT31;56061;51.748;19.620;2023-05-16T16:51:18;18.40;58.88
69006;SHT31;56061;51.748;19.620;2023-05-16T16:53:44;18.31;59.16
69006;SHT31;56061;51.748;19.620;2023-05-16T16:56:19;18.23;59.19
69006;SHT31;56061;51.748;19.620;2023-05-16T16:58:46;18.13;59.44
69006;SHT31;56061;51.748;19.620;2023-05-16T17:01:13;18.06;59.92
69006;SHT31;56061;51.748;19.620;2023-05-16T17:03:40;17.97;60.00
69006;SHT31;56061;51.748;19.620;2023-05-16T17:06:07;17.89;60.27
69006;SHT31;56061;51.748;19.620;2023-05-16T17:08:40;17.78;60.55
69006;SHT31;56061;51.748;19.620;2023-05-16T17:11:07;17.67;60.89
69006;SHT31;56061;51.748;19.620;2023-05-16T17:13:33;17.57;61.18
69006;SHT31;56061;51.748;19.620;2023-05-16T17:16:02;17.50;61.58
69006;SHT31;56061;51.748;19.620;2023-05-16T17:18:29;17.42;61.67
69006;SHT31;56061;51.748;19.620;2023-05-16T17:21:02;17.33;61.85
69006;SHT31;56061;51.748;19.620;2023-05-16T17:23:29;17.24;62.11
69006;SHT31;56061;51.748;19.620;2023-05-16T17:25:56;17.19;62.32
69006;SHT31;56061;51.748;19.620;2023-05-16T17:28:22;17.16;62.81
69006;SHT31;56061;51.748;19.620;2023-05-16T17:30:50;17.09;63.17
69006;SHT31;56061;51.748;19.620;2023-05-16T17:33:17;17.02;63.46
69006;SHT31;56061;51.748;19.620;2023-05-16T17:35:53;16.95;63.62
69006;SHT31;56061;51.748;19.620;2023-05-16T17:38:20;16.90;63.69
69006;SHT31;56061;51.748;19.620;2023-05-16T17:40:47;16.84;63.91
69006;SHT31;56061;51.748;19.620;2023-05-16T17:43:13;16.80;64.27
69006;SHT31;56061;51.748;19.620;2023-05-16T17:45:49;16.75;64.57
69006;SHT31;56061;51.748;19.620;2023-05-16T17:48:16;16.69;64.90
69006;SHT31;56061;51.748;19.620;2023-05-16T17:50:43;16.67;65.21
69006;SHT31;56061;51.748;19.620;2023-05-16T17:53:10;16.66;65.66
69006;SHT31;56061;51.748;19.620;2023-05-16T17:55:36;16.66;66.06
69006;SHT31;56061;51.748;19.620;2023-05-16T17:58:04;16.65;66.23
69006;SHT31;56061;51.748;19.620;2023-05-16T18:00:40;16.63;66.32
69006;SHT31;56061;51.748;19.620;2023-05-16T18:03:07;16.60;66.64
69006;SHT31;56061;51.748;19.620;2023-05-16T18:05:36;16.55;67.26
69006;SHT31;56061;51.748;19.620;2023-05-16T18:08:03;16.52;67.59
69006;SHT31;56061;51.748;19.620;2023-05-16T18:10:33;16.47;67.87
69006;SHT31;56061;51.748;19.620;2023-05-16T18:13:15;16.39;67.53
69006;SHT31;56061;51.748;19.620;2023-05-16T18:15:42;16.33;67.71
69006;SHT31;56061;51.748;19.620;2023-05-16T18:18:09;16.26;68.21
69006;SHT31;56061;51.748;19.620;2023-05-16T18:20:36;16.19;68.70
69006;SHT31;56061;51.748;19.620;2023-05-16T18:23:03;16.15;68.92
69006;SHT31;56061;51.748;19.620;2023-05-16T18:25:29;16.11;68.81
69006;SHT31;56061;51.748;19.620;2023-05-16T18:27:56;16.09;68.69
69006;SHT31;56061;51.748;19.620;2023-05-16T18:30:22;16.11;68.17
69006;SHT31;56061;51.748;19.620;2023-05-16T18:32:49;16.13;68.24
69006;SHT31;56061;51.748;19.620;2023-05-16T18:35:15;16.12;68.46
69006;SHT31;56061;51.748;19.620;2023-05-16T18:37:42;16.09;68.94
69006;SHT31;56061;51.748;19.620;2023-05-16T18:40:09;16.06;68.87
69006;SHT31;56061;51.748;19.620;2023-05-16T18:42:37;16.03;68.66
69006;SHT31;56061;51.748;19.620;2023-05-16T18:45:03;15.99;68.68
69006;SHT31;56061;51.748;19.620;2023-05-16T18:47:31;15.96;68.97
69006;SHT31;56061;51.748;19.620;2023-05-16T18:49:58;15.91;69.31
69006;SHT31;56061;51.748;19.620;2023-05-16T18:52:24;15.85;69.60
69006;SHT31;56061;51.748;19.620;2023-05-16T18:54:51;15.80;69.88
69006;SHT31;56061;51.748;19.620;2023-05-16T18:57:17;15.77;70.13
69006;SHT31;56061;51.748;19.620;2023-05-16T18:59:44;15.74;70.48
69006;SHT31;56061;51.748;19.620;2023-05-16T19:02:11;15.73;70.81
69006;SHT31;56061;51.748;19.620;2023-05-16T19:04:37;15.74;71.08
69006;SHT31;56061;51.748;19.620;2023-05-16T19:07:04;15.73;71.13
69006;SHT31;56061;51.748;19.620;2023-05-16T19:09:34;15.72;71.25
69006;SHT31;56061;51.748;19.620;2023-05-16T19:12:01;15.70;71.23
69006;SHT31;56061;51.748;19.620;2023-05-16T19:14:27;15.66;72.70
69006;SHT31;56061;51.748;19.620;2023-05-16T19:16:54;15.60;72.82
69006;SHT31;56061;51.748;19.620;2023-05-16T19:19:20;15.56;72.53
69006;SHT31;56061;51.748;19.620;2023-05-16T19:21:47;15.55;72.73
69006;SHT31;56061;51.748;19.620;2023-05-16T19:24:14;15.54;73.16
69006;SHT31;56061;51.748;19.620;2023-05-16T19:26:40;15.53;72.75
69006;SHT31;56061;51.748;19.620;2023-05-16T19:29:07;15.50;72.87
69006;SHT31;56061;51.748;19.620;2023-05-16T19:31:35;15.47;72.99
69006;SHT31;56061;51.748;19.620;2023-05-16T19:34:02;15.41;73.11
69006;SHT31;56061;51.748;19.620;2023-05-16T19:36:29;15.36;73.55
69006;SHT31;56061;51.748;19.620;2023-05-16T19:38:56;15.30;73.96
69006;SHT31;56061;51.748;19.620;2023-05-16T19:41:24;15.23;74.21
69006;SHT31;56061;51.748;19.620;2023-05-16T19:43:51;15.20;74.52
69006;SHT31;56061;51.748;19.620;2023-05-16T19:46:17;15.14;74.92
69006;SHT31;56061;51.748;19.620;2023-05-16T19:48:44;15.09;75.27
69006;SHT31;56061;51.748;19.620;2023-05-16T19:51:11;15.02;75.72
69006;SHT31;56061;51.748;19.620;2023-05-16T19:53:37;14.95;76.19
69006;SHT31;56061;51.748;19.620;2023-05-16T19:56:04;14.92;76.56
69006;SHT31;56061;51.748;19.620;2023-05-16T19:58:31;14.91;76.76
69006;SHT31;56061;51.748;19.620;2023-05-16T20:00:58;14.88;76.70
69006;SHT31;56061;51.748;19.620;2023-05-16T20:03:24;14.82;76.69
69006;SHT31;56061;51.748;19.620;2023-05-16T20:05:51;14.74;76.78
69006;SHT31;56061;51.748;19.620;2023-05-16T20:08:18;14.68;77.01
69006;SHT31;56061;51.748;19.620;2023-05-16T20:10:44;14.64;76.98
69006;SHT31;56061;51.748;19.620;2023-05-16T20:13:11;14.61;77.03
69006;SHT31;56061;51.748;19.620;2023-05-16T20:15:40;14.59;77.02
